sensor_id;sensor_type;location;lat;lon;timestamp;P1;durP1;ratioP1;P2;durP2;ratioP2
1204;SDS011;592;48.764;9.174;2023-03-30T00:00:53;12.60;;;3.87;;
1204;SDS011;592;48.764;9.174;2023-03-30T00:03:19;12.73;;;3.10;;
1204;SDS011;592;48.764;9.174;2023-03-30T00:05:46;12.23;;;3.93;;
1204;SDS011;592;48.764;9.174;2023-03-30T00:08:14;10.20;;;3.47;;
1204;SDS011;592;48.764;9.174;2023-03-30T00:10:42;8.70;;;2.70;;
1204;SDS011;592;48.764;9.174;2023-03-30T00:13:09;9.17;;;3.23;;
1204;SDS011;592;48.764;9.174;2023-03-30T00:15:38;9.97;;;3.07;;
1204;SDS011;592;48.764;9.174;2023-03-30T00:18:05;9.13;;;3.30;;
1204;SDS011;592;48.764;9.174;2023-03-30T00:20:33;8.97;;;3.30;;
1204;SDS011;592;48.764;9.174;2023-03-30T00:23:01;10.57;;;3.80;;
1204;SDS011;592;48.764;9.174;2023-03-30T00:25:28;14.90;;;3.43;;
1204;SDS011;592;48.764;9.174;2023-03-30T00:27:54;14.47;;;3.30;;
1204;SDS011;592;48.764;9.174;2023-03-30T00:30:21;13.53;;;3.33;;
1204;SDS011;592;48.764;9.174;2023-03-30T00:32:49;14.20;;;3.33;;
1204;SDS011;592;48.764;9.174;2023-03-30T00:35:16;9.73;;;2.93;;
1204;SDS011;592;48.764;9.174;2023-03-30T00:37:43;10.23;;;3.87;;
1204;SDS011;592;48.764;9.174;2023-03-30T00:40:15;13.57;;;3.60;;
1204;SDS011;592;48.764;9.174;2023-03-30T00:42:43;11.63;;;3.47;;
1204;SDS011;592;48.764;9.174;2023-03-30T00:45:15;17.63;;;3.97;;
1204;SDS011;592;48.764;9.174;2023-03-30T00:47:45;12.03;;;2.90;;
1204;SDS011;592;48.764;9.174;2023-03-30T00:50:24;12.00;;;4.00;;
1204;SDS011;592;48.764;9.174;2023-03-30T00:52:54;15.63;;;3.83;;
1204;SDS011;592;48.764;9.174;2023-03-30T00:55:25;9.87;;;2.90;;
1204;SDS011;592;48.764;9.174;2023-03-30T00:57:54;15.30;;;3.77;;
1204;SDS011;592;48.764;9.174;2023-03-30T01:00:21;20.70;;;3.93;;
1204;SDS011;592;48.764;9.174;2023-03-30T01:02:49;18.87;;;3.87;;
1204;SDS011;592;48.764;9.174;2023-03-30T01:05:21;12.10;;;3.60;;
1204;SDS011;592;48.764;9.174;2023-03-30T01:07:49;14.73;;;3.70;;
1204;SDS011;592;48.764;9.174;2023-03-30T01:10:16;18.30;;;3.87;;
1204;SDS011;592;48.764;9.174;2023-03-30T01:12:44;15.60;;;3.57;;
1204;SDS011;592;48.764;9.174;2023-03-30T01:15:11;13.83;;;3.70;;
1204;SDS011;592;48.764;9.174;2023-03-30T01:17:44;17.67;;;3.70;;
1204;SDS011;592;48.764;9.174;2023-03-30T01:20:40;11.97;;;3.60;;
1204;SDS011;592;48.764;9.174;2023-03-30T01:23:39;16.23;;;4.50;;
1204;SDS011;592;48.764;9.174;2023-03-30T01:26:28;24.07;;;4.57;;
1204;SDS011;592;48.764;9.174;2023-03-30T01:29:09;14.43;;;3.70;;
1204;SDS011;592;48.764;9.174;2023-03-30T01:31:54;12.57;;;3.70;;
1204;SDS011;592;48.764;9.174;2023-03-30T01:34:35;13.73;;;3.60;;
1204;SDS011;592;48.764;9.174;2023-03-30T01:40:23;12.20;;;3.90;;
1204;SDS011;592;48.764;9.174;2023-03-30T01:42:57;14.37;;;3.57;;
1204;SDS011;592;48.764;9.174;2023-03-30T01:45:30;11.90;;;3.60;;
1204;SDS011;592;48.764;9.174;2023-03-30T01:48:07;16.20;;;3.77;;
1204;SDS011;592;48.764;9.174;2023-03-30T01:50:38;19.23;;;6.40;;
1204;SDS011;592;48.764;9.174;2023-03-30T01:53:08;16.43;;;3.37;;
1204;SDS011;592;48.764;9.174;2023-03-30T01:55:42;15.77;;;4.37;;
1204;SDS011;592;48.764;9.174;2023-03-30T01:58:14;13.00;;;4.07;;
1204;SDS011;592;48.764;9.174;2023-03-30T02:00:44;13.63;;;3.70;;
1204;SDS011;592;48.764;9.174;2023-03-30T02:03:14;11.50;;;3.40;;
1204;SDS011;592;48.764;9.174;2023-03-30T02:05:45;11.90;;;4.03;;
1204;SDS011;592;48.764;9.174;2023-03-30T02:08:17;16.60;;;4.57;;
1204;SDS011;592;48.764;9.174;2023-03-30T02:10:49;15.30;;;3.57;;
1204;SDS011;592;48.764;9.174;2023-03-30T02:13:18;18.00;;;3.70;;
1204;SDS011;592;48.764;9.174;2023-03-30T02:15:46;13.83;;;3.77;;
1204;SDS011;592;48.764;9.174;2023-03-30T02:18:15;13.77;;;3.93;;
1204;SDS011;592;48.764;9.174;2023-03-30T02:20:43;13.10;;;4.27;;
1204;SDS011;592;48.764;9.174;2023-03-30T02:23:10;15.10;;;4.10;;
1204;SDS011;592;48.764;9.174;2023-03-30T02:25:37;12.17;;;3.80;;
1204;SDS011;592;48.764;9.174;2023-03-30T02:28:06;10.13;;;3.83;;
1204;SDS011;592;48.764;9.174;2023-03-30T02:30:35;19.73;;;3.70;;
1204;SDS011;592;48.764;9.174;2023-03-30T02:33:04;9.40;;;3.60;;
1204;SDS011;592;48.764;9.174;2023-03-30T02:35:46;19.73;;;3.93;;
1204;SDS011;592;48.764;9.174;2023-03-30T02:38:24;12.37;;;4.10;;
1204;SDS011;592;48.764;9.174;2023-03-30T02:41:15;18.47;;;3.60;;
1204;SDS011;592;48.764;9.174;2023-03-30T02:43:52;17.63;;;3.80;;
1204;SDS011;592;48.764;9.174;2023-03-30T02:46:38;9.00;;;3.37;;
1204;SDS011;592;48.764;9.174;2023-03-30T02:49:16;9.63;;;3.60;;
1204;SDS011;592;48.764;9.174;2023-03-30T02:51:51;17.93;;;4.40;;
1204;SDS011;592;48.764;9.174;2023-03-30T02:54:22;12.07;;;4.00;;
1204;SDS011;592;48.764;9.174;2023-03-30T02:56:57;11.30;;;3.93;;
1204;SDS011;592;48.764;9.174;2023-03-30T02:59:34;21.07;;;4.37;;
1204;SDS011;592;48.764;9.174;2023-03-30T03:02:09;10.67;;;4.00;;
1204;SDS011;592;48.764;9.174;2023-03-30T03:04:39;17.20;;;4.17;;
1204;SDS011;592;48.764;9.174;2023-03-30T03:07:07;15.67;;;4.03;;
1204;SDS011;592;48.764;9.174;2023-03-30T03:09:35;19.57;;;5.30;;
1204;SDS011;592;48.764;9.174;2023-03-30T03:12:01;13.10;;;4.20;;
1204;SDS011;592;48.764;9.174;2023-03-30T03:14:29;11.40;;;3.97;;
1204;SDS011;592;48.764;9.174;2023-03-30T03:16:57;13.97;;;4.50;;
1204;SDS011;592;48.764;9.174;2023-03-30T03:19:23;15.43;;;4.07;;
1204;SDS011;592;48.764;9.174;2023-03-30T03:21:50;20.83;;;5.70;;
1204;SDS011;592;48.764;9.174;2023-03-30T03:24:17;13.57;;;4.33;;
1204;SDS011;592;48.764;9.174;2023-03-30T03:26:43;14.97;;;4.57;;
1204;SDS011;592;48.764;9.174;2023-03-30T03:29:10;14.93;;;4.80;;
1204;SDS011;592;48.764;9.174;2023-03-30T03:31:37;15.60;;;3.60;;
1204;SDS011;592;48.764;9.174;2023-03-30T03:34:05;16.33;;;4.37;;
1204;SDS011;592;48.764;9.174;2023-03-30T03:36:32;14.43;;;5.27;;
1204;SDS011;592;48.764;9.174;2023-03-30T03:38:59;9.97;;;4.10;;
1204;SDS011;592;48.764;9.174;2023-03-30T03:41:26;13.67;;;3.87;;
1204;SDS011;592;48.764;9.174;2023-03-30T03:43:52;11.80;;;4.60;;
1204;SDS011;592;48.764;9.174;2023-03-30T03:46:19;11.33;;;3.90;;
1204;SDS011;592;48.764;9.174;2023-03-30T03:48:46;13.87;;;4.30;;
1204;SDS011;592;48.764;9.174;2023-03-30T03:51:14;12.10;;;3.37;;
1204;SDS011;592;48.764;9.174;2023-03-30T03:53:40;16.57;;;4.60;;
1204;SDS011;592;48.764;9.174;2023-03-30T03:56:07;13.40;;;3.97;;
1204;SDS011;592;48.764;9.174;2023-03-30T03:58:35;11.27;;;4.23;;
1204;SDS011;592;48.764;9.174;2023-03-30T04:01:02;17.87;;;5.30;;
1204;SDS011;592;48.764;9.174;2023-03-30T04:03:29;15.10;;;4.77;;
1204;SDS011;592;48.764;9.174;2023-03-30T04:05:57;19.87;;;4.63;;
1204;SDS011;592;48.764;9.174;2023-03-30T04:08:25;12.97;;;4.70;;
1204;SDS011;592;48.764;9.174;2023-03-30T04:10:52;19.30;;;4.30;;
1204;SDS011;592;48.764;9.174;2023-03-30T04:13:19;16.07;;;4.20;;
1204;SDS011;592;48.764;9.174;2023-03-30T04:15:45;22.00;;;4.80;;
1204;SDS011;592;48.764;9.174;2023-03-30T04:18:12;15.37;;;4.40;;
1204;SDS011;592;48.764;9.174;2023-03-30T04:20:39;10.73;;;3.77;;
1204;SDS011;592;48.764;9.174;2023-03-30T04:23:06;16.23;;;4.30;;
1204;SDS011;592;48.764;9.174;2023-03-30T04:25:35;14.73;;;4.90;;
1204;SDS011;592;48.764;9.174;2023-03-30T04:28:03;18.13;;;4.20;;
1204;SDS011;592;48.764;9.174;2023-03-30T04:30:30;15.37;;;4.17;;
1204;SDS011;592;48.764;9.174;2023-03-30T04:32:57;21.37;;;4.73;;
1204;SDS011;592;48.764;9.174;2023-03-30T04:35:29;12.30;;;3.87;;
1204;SDS011;592;48.764;9.174;2023-03-30T04:37:56;18.03;;;3.93;;
1204;SDS011;592;48.764;9.174;2023-03-30T04:40:24;19.93;;;4.63;;
1204;SDS011;592;48.764;9.174;2023-03-30T04:42:52;17.67;;;5.00;;
1204;SDS011;592;48.764;9.174;2023-03-30T04:45:19;12.20;;;4.13;;
1204;SDS011;592;48.764;9.174;2023-03-30T04:47:46;12.20;;;4.50;;
1204;SDS011;592;48.764;9.174;2023-03-30T04:50:13;16.13;;;4.57;;
1204;SDS011;592;48.764;9.174;2023-03-30T04:52:40;13.70;;;4.63;;
1204;SDS011;592;48.764;9.174;2023-03-30T04:55:07;9.57;;;3.90;;
1204;SDS011;592;48.764;9.174;2023-03-30T04:57:35;10.77;;;3.73;;
1204;SDS011;592;48.764;9.174;2023-03-30T05:00:04;15.47;;;6.00;;
1204;SDS011;592;48.764;9.174;2023-03-30T05:02:33;23.97;;;5.00;;
1204;SDS011;592;48.764;9.174;2023-03-30T05:05:00;13.43;;;5.37;;
1204;SDS011;592;48.764;9.174;2023-03-30T05:07:26;18.63;;;4.20;;
1204;SDS011;592;48.764;9.174;2023-03-30T05:09:53;17.50;;;4.77;;
1204;SDS011;592;48.764;9.174;2023-03-30T05:12:21;15.73;;;4.07;;
1204;SDS011;592;48.764;9.174;2023-03-30T05:15:01;23.43;;;4.53;;
1204;SDS011;592;48.764;9.174;2023-03-30T05:17:30;22.00;;;6.10;;
1204;SDS011;592;48.764;9.174;2023-03-30T05:19:57;12.63;;;5.00;;
1204;SDS011;592;48.764;9.174;2023-03-30T05:22:24;15.57;;;4.87;;
1204;SDS011;592;48.764;9.174;2023-03-30T05:24:51;16.27;;;4.67;;
1204;SDS011;592;48.764;9.174;2023-03-30T05:27:18;17.73;;;5.03;;
1204;SDS011;592;48.764;9.174;2023-03-30T05:29:45;14.00;;;4.57;;
1204;SDS011;592;48.764;9.174;2023-03-30T05:32:13;13.90;;;4.77;;
1204;SDS011;592;48.764;9.174;2023-03-30T05:34:39;17.73;;;4.90;;
1204;SDS011;592;48.764;9.174;2023-03-30T05:37:06;21.30;;;5.43;;
1204;SDS011;592;48.764;9.174;2023-03-30T05:39:33;23.70;;;5.17;;
1204;SDS011;592;48.764;9.174;2023-03-30T05:42:00;16.70;;;4.70;;
1204;SDS011;592;48.764;9.174;2023-03-30T05:44:27;19.40;;;4.60;;
1204;SDS011;592;48.764;9.174;2023-03-30T05:46:54;16.80;;;4.50;;
1204;SDS011;592;48.764;9.174;2023-03-30T05:49:22;18.03;;;4.33;;
1204;SDS011;592;48.764;9.174;2023-03-30T05:51:49;17.10;;;5.13;;
1204;SDS011;592;48.764;9.174;2023-03-30T05:54:17;14.70;;;4.90;;
1204;SDS011;592;48.764;9.174;2023-03-30T05:56:44;16.33;;;4.30;;
1204;SDS011;592;48.764;9.174;2023-03-30T05:59:11;18.33;;;4.60;;
1204;SDS011;592;48.764;9.174;2023-03-30T06:01:38;19.67;;;5.17;;
1204;SDS011;592;48.764;9.174;2023-03-30T06:04:05;15.83;;;4.90;;
1204;SDS011;592;48.764;9.174;2023-03-30T06:06:33;15.13;;;5.33;;
1204;SDS011;592;48.764;9.174;2023-03-30T06:09:00;14.47;;;4.70;;
1204;SDS011;592;48.764;9.174;2023-03-30T06:11:28;15.30;;;4.70;;
1204;SDS011;592;48.764;9.174;2023-03-30T06:13:55;17.73;;;5.87;;
1204;SDS011;592;48.764;9.174;2023-03-30T06:16:22;15.73;;;5.10;;
1204;SDS011;592;48.764;9.174;2023-03-30T06:18:49;16.70;;;4.60;;
1204;SDS011;592;48.764;9.174;2023-03-30T06:21:16;18.17;;;5.73;;
1204;SDS011;592;48.764;9.174;2023-03-30T06:23:44;21.93;;;5.90;;
1204;SDS011;592;48.764;9.174;2023-03-30T06:26:11;19.50;;;5.30;;
1204;SDS011;592;48.764;9.174;2023-03-30T06:28:38;9.50;;;4.20;;
1204;SDS011;592;48.764;9.174;2023-03-30T06:31:10;14.83;;;5.80;;
1204;SDS011;592;48.764;9.174;2023-03-30T06:33:40;17.73;;;5.13;;
1204;SDS011;592;48.764;9.174;2023-03-30T06:36:08;16.60;;;5.30;;
1204;SDS011;592;48.764;9.174;2023-03-30T06:38:37;14.03;;;4.63;;
1204;SDS011;592;48.764;9.174;2023-03-30T06:41:05;12.43;;;4.13;;
1204;SDS011;592;48.764;9.174;2023-03-30T06:43:36;11.70;;;4.53;;
1204;SDS011;592;48.764;9.174;2023-03-30T06:46:03;17.97;;;5.00;;
1204;SDS011;592;48.764;9.174;2023-03-30T06:48:31;14.90;;;4.80;;
1204;SDS011;592;48.764;9.174;2023-03-30T06:50:58;15.07;;;5.20;;
1204;SDS011;592;48.764;9.174;2023-03-30T06:53:24;16.50;;;5.30;;
1204;SDS011;592;48.764;9.174;2023-03-30T06:55:52;18.30;;;5.10;;
1204;SDS011;592;48.764;9.174;2023-03-30T06:58:22;19.83;;;5.23;;
1204;SDS011;592;48.764;9.174;2023-03-30T07:00:51;17.10;;;5.10;;
1204;SDS011;592;48.764;9.174;2023-03-30T07:03:18;18.07;;;5.60;;
1204;SDS011;592;48.764;9.174;2023-03-30T07:05:46;24.13;;;5.10;;
1204;SDS011;592;48.764;9.174;2023-03-30T07:08:12;23.67;;;5.27;;
1204;SDS011;592;48.764;9.174;2023-03-30T07:10:39;12.63;;;4.33;;
1204;SDS011;592;48.764;9.174;2023-03-30T07:13:07;16.00;;;4.80;;
1204;SDS011;592;48.764;9.174;2023-03-30T07:15:36;12.30;;;4.60;;
1204;SDS011;592;48.764;9.174;2023-03-30T07:18:03;17.67;;;5.23;;
1204;SDS011;592;48.764;9.174;2023-03-30T07:20:30;17.20;;;4.83;;
1204;SDS011;592;48.764;9.174;2023-03-30T07:22:56;17.77;;;5.20;;
1204;SDS011;592;48.764;9.174;2023-03-30T07:25:23;21.50;;;5.03;;
1204;SDS011;592;48.764;9.174;2023-03-30T07:27:50;14.87;;;5.07;;
1204;SDS011;592;48.764;9.174;2023-03-30T07:30:17;12.13;;;4.63;;
1204;SDS011;592;48.764;9.174;2023-03-30T07:32:47;21.93;;;4.90;;
1204;SDS011;592;48.764;9.174;2023-03-30T07:35:15;22.10;;;5.13;;
1204;SDS011;592;48.764;9.174;2023-03-30T07:37:42;24.90;;;5.13;;
1204;SDS011;592;48.764;9.174;2023-03-30T07:40:09;15.80;;;5.60;;
1204;SDS011;592;48.764;9.174;2023-03-30T07:42:36;19.83;;;5.13;;
1204;SDS011;592;48.764;9.174;2023-03-30T07:45:03;14.90;;;5.00;;
1204;SDS011;592;48.764;9.174;2023-03-30T07:47:31;18.73;;;4.80;;
1204;SDS011;592;48.764;9.174;2023-03-30T07:49:59;15.53;;;4.50;;
1204;SDS011;592;48.764;9.174;2023-03-30T07:52:26;11.97;;;4.00;;
1204;SDS011;592;48.764;9.174;2023-03-30T07:54:52;13.27;;;5.40;;
1204;SDS011;592;48.764;9.174;2023-03-30T07:57:19;10.60;;;4.10;;
1204;SDS011;592;48.764;9.174;2023-03-30T07:59:46;10.90;;;4.23;;
1204;SDS011;592;48.764;9.174;2023-03-30T08:02:13;10.07;;;4.00;;
1204;SDS011;592;48.764;9.174;2023-03-30T08:04:40;12.60;;;4.43;;
1204;SDS011;592;48.764;9.174;2023-03-30T08:07:09;11.40;;;4.07;;
1204;SDS011;592;48.764;9.174;2023-03-30T08:09:36;13.60;;;5.00;;
1204;SDS011;592;48.764;9.174;2023-03-30T08:12:05;10.53;;;3.93;;
1204;SDS011;592;48.764;9.174;2023-03-30T08:14:32;11.57;;;4.33;;
1204;SDS011;592;48.764;9.174;2023-03-30T08:16:58;8.73;;;4.00;;
1204;SDS011;592;48.764;9.174;2023-03-30T08:19:25;10.30;;;4.80;;
1204;SDS011;592;48.764;9.174;2023-03-30T08:21:52;15.53;;;4.30;;
1204;SDS011;592;48.764;9.174;2023-03-30T08:24:21;16.27;;;4.80;;
1204;SDS011;592;48.764;9.174;2023-03-30T08:26:48;10.00;;;4.10;;
1204;SDS011;592;48.764;9.174;2023-03-30T08:29:15;9.00;;;4.00;;
1204;SDS011;592;48.764;9.174;2023-03-30T08:31:42;11.90;;;4.67;;
1204;SDS011;592;48.764;9.174;2023-03-30T08:34:09;6.60;;;3.10;;
1204;SDS011;592;48.764;9.174;2023-03-30T08:36:36;11.40;;;3.60;;
1204;SDS011;592;48.764;9.174;2023-03-30T08:39:03;9.17;;;3.17;;
1204;SDS011;592;48.764;9.174;2023-03-30T08:41:39;10.23;;;4.03;;
1204;SDS011;592;48.764;9.174;2023-03-30T08:44:32;12.10;;;4.17;;
1204;SDS011;592;48.764;9.174;2023-03-30T08:47:02;9.70;;;3.57;;
1204;SDS011;592;48.764;9.174;2023-03-30T08:49:34;9.10;;;3.70;;
1204;SDS011;592;48.764;9.174;2023-03-30T08:52:06;10.57;;;4.20;;
1204;SDS011;592;48.764;9.174;2023-03-30T08:54:38;6.60;;;3.50;;
1204;SDS011;592;48.764;9.174;2023-03-30T08:57:08;13.20;;;3.87;;
1204;SDS011;592;48.764;9.174;2023-03-30T08:59:42;9.80;;;3.90;;
1204;SDS011;592;48.764;9.174;2023-03-30T09:02:13;6.80;;;3.47;;
1204;SDS011;592;48.764;9.174;2023-03-30T09:04:52;7.47;;;3.53;;
1204;SDS011;592;48.764;9.174;2023-03-30T09:07:23;8.60;;;3.67;;
1204;SDS011;592;48.764;9.174;2023-03-30T09:09:52;8.83;;;3.80;;
1204;SDS011;592;48.764;9.174;2023-03-30T09:12:23;11.20;;;3.73;;
1204;SDS011;592;48.764;9.174;2023-03-30T09:14:58;7.67;;;3.30;;
1204;SDS011;592;48.764;9.174;2023-03-30T09:17:30;6.10;;;3.17;;
1204;SDS011;592;48.764;9.174;2023-03-30T09:20:03;11.67;;;3.27;;
1204;SDS011;592;48.764;9.174;2023-03-30T09:22:34;6.73;;;3.17;;
1204;SDS011;592;48.764;9.174;2023-03-30T09:25:10;10.23;;;3.70;;
1204;SDS011;592;48.764;9.174;2023-03-30T09:27:41;6.50;;;3.43;;
1204;SDS011;592;48.764;9.174;2023-03-30T09:30:17;7.07;;;3.27;;
1204;SDS011;592;48.764;9.174;2023-03-30T09:32:48;8.10;;;3.27;;
1204;SDS011;592;48.764;9.174;2023-03-30T09:35:26;5.77;;;3.00;;
1204;SDS011;592;48.764;9.174;2023-03-30T09:38:00;6.23;;;2.50;;
1204;SDS011;592;48.764;9.174;2023-03-30T09:40:33;6.73;;;2.80;;
1204;SDS011;592;48.764;9.174;2023-03-30T09:43:14;6.70;;;2.97;;
1204;SDS011;592;48.764;9.174;2023-03-30T09:45:48;6.77;;;2.73;;
1204;SDS011;592;48.764;9.174;2023-03-30T09:48:16;10.10;;;3.67;;
1204;SDS011;592;48.764;9.174;2023-03-30T09:50:43;6.77;;;3.17;;
1204;SDS011;592;48.764;9.174;2023-03-30T09:53:18;8.83;;;3.10;;
1204;SDS011;592;48.764;9.174;2023-03-30T09:55:57;9.73;;;3.40;;
1204;SDS011;592;48.764;9.174;2023-03-30T09:58:27;8.90;;;3.37;;
1204;SDS011;592;48.764;9.174;2023-03-30T10:01:02;8.00;;;3.30;;
1204;SDS011;592;48.764;9.174;2023-03-30T10:03:31;6.20;;;3.30;;
1204;SDS011;592;48.764;9.174;2023-03-30T10:05:59;5.60;;;3.10;;
1204;SDS011;592;48.764;9.174;2023-03-30T10:08:28;8.00;;;3.83;;
1204;SDS011;592;48.764;9.174;2023-03-30T10:10:56;7.40;;;3.47;;
1204;SDS011;592;48.764;9.174;2023-03-30T10:13:27;6.60;;;3.60;;
1204;SDS011;592;48.764;9.174;2023-03-30T10:15:59;7.07;;;3.80;;
1204;SDS011;592;48.764;9.174;2023-03-30T10:18:31;6.30;;;3.10;;
1204;SDS011;592;48.764;9.174;2023-03-30T10:21:03;9.10;;;4.60;;
1204;SDS011;592;48.764;9.174;2023-03-30T10:23:32;10.17;;;4.10;;
1204;SDS011;592;48.764;9.174;2023-03-30T10:26:04;7.17;;;3.90;;
1204;SDS011;592;48.764;9.174;2023-03-30T10:28:38;7.87;;;4.20;;
1204;SDS011;592;48.764;9.174;2023-03-30T10:31:06;6.67;;;4.47;;
1204;SDS011;592;48.764;9.174;2023-03-30T10:33:40;7.67;;;3.37;;
1204;SDS011;592;48.764;9.174;2023-03-30T10:36:09;6.43;;;4.10;;
1204;SDS011;592;48.764;9.174;2023-03-30T10:38:38;6.33;;;4.23;;
1204;SDS011;592;48.764;9.174;2023-03-30T10:41:09;8.70;;;3.87;;
1204;SDS011;592;48.764;9.174;2023-03-30T10:43:39;7.17;;;3.80;;
1204;SDS011;592;48.764;9.174;2023-03-30T10:46:09;7.10;;;3.40;;
1204;SDS011;592;48.764;9.174;2023-03-30T10:48:47;7.20;;;3.83;;
1204;SDS011;592;48.764;9.174;2023-03-30T10:51:34;6.73;;;3.80;;
1204;SDS011;592;48.764;9.174;2023-03-30T10:54:09;5.70;;;3.57;;
1204;SDS011;592;48.764;9.174;2023-03-30T10:56:43;7.33;;;3.80;;
1204;SDS011;592;48.764;9.174;2023-03-30T11:02:26;8.27;;;3.60;;
1204;SDS011;592;48.764;9.174;2023-03-30T11:05:13;10.87;;;5.20;;
1204;SDS011;592;48.764;9.174;2023-03-30T11:07:43;8.90;;;3.77;;
1204;SDS011;592;48.764;9.174;2023-03-30T11:10:14;8.53;;;3.70;;
1204;SDS011;592;48.764;9.174;2023-03-30T11:12:46;7.00;;;4.30;;
1204;SDS011;592;48.764;9.174;2023-03-30T11:15:20;7.73;;;4.00;;
1204;SDS011;592;48.764;9.174;2023-03-30T11:17:54;9.23;;;4.10;;
1204;SDS011;592;48.764;9.174;2023-03-30T11:20:28;9.47;;;4.53;;
1204;SDS011;592;48.764;9.174;2023-03-30T11:22:59;8.30;;;4.23;;
1204;SDS011;592;48.764;9.174;2023-03-30T11:25:31;12.73;;;4.30;;
1204;SDS011;592;48.764;9.174;2023-03-30T11:28:04;11.70;;;4.30;;
1204;SDS011;592;48.764;9.174;2023-03-30T11:30:37;8.00;;;3.63;;
1204;SDS011;592;48.764;9.174;2023-03-30T11:33:10;13.00;;;4.10;;
1204;SDS011;592;48.764;9.174;2023-03-30T11:35:44;6.63;;;3.97;;
1204;SDS011;592;48.764;9.174;2023-03-30T11:38:14;8.57;;;3.80;;
1204;SDS011;592;48.764;9.174;2023-03-30T11:40:45;9.43;;;4.13;;
1204;SDS011;592;48.764;9.174;2023-03-30T11:43:13;5.30;;;3.57;;
1204;SDS011;592;48.764;9.174;2023-03-30T11:45:46;8.27;;;4.63;;
1204;SDS011;592;48.764;9.174;2023-03-30T11:48:27;8.47;;;4.43;;
1204;SDS011;592;48.764;9.174;2023-03-30T11:51:14;8.50;;;3.20;;
1204;SDS011;592;48.764;9.174;2023-03-30T11:53:52;9.70;;;3.40;;
1204;SDS011;592;48.764;9.174;2023-03-30T11:56:27;8.17;;;3.80;;
1204;SDS011;592;48.764;9.174;2023-03-30T11:59:00;9.30;;;3.90;;
1204;SDS011;592;48.764;9.174;2023-03-30T12:04:22;8.53;;;3.97;;
1204;SDS011;592;48.764;9.174;2023-03-30T12:06:54;8.07;;;3.83;;
1204;SDS011;592;48.764;9.174;2023-03-30T12:09:23;5.20;;;3.40;;
1204;SDS011;592;48.764;9.174;2023-03-30T12:12:01;11.37;;;3.90;;
1204;SDS011;592;48.764;9.174;2023-03-30T12:14:37;8.60;;;3.73;;
1204;SDS011;592;48.764;9.174;2023-03-30T12:17:12;8.20;;;4.50;;
1204;SDS011;592;48.764;9.174;2023-03-30T12:19:52;8.23;;;3.90;;
1204;SDS011;592;48.764;9.174;2023-03-30T12:22:24;7.27;;;3.83;;
1204;SDS011;592;48.764;9.174;2023-03-30T12:24:57;11.10;;;4.53;;
1204;SDS011;592;48.764;9.174;2023-03-30T12:27:32;8.30;;;4.37;;
1204;SDS011;592;48.764;9.174;2023-03-30T12:30:11;7.37;;;4.07;;
1204;SDS011;592;48.764;9.174;2023-03-30T12:32:55;9.87;;;4.90;;
1204;SDS011;592;48.764;9.174;2023-03-30T12:38:19;13.87;;;5.27;;
1204;SDS011;592;48.764;9.174;2023-03-30T12:40:52;12.13;;;5.80;;
1204;SDS011;592;48.764;9.174;2023-03-30T12:43:28;11.20;;;5.10;;
1204;SDS011;592;48.764;9.174;2023-03-30T12:46:03;9.53;;;4.87;;
1204;SDS011;592;48.764;9.174;2023-03-30T12:48:40;9.27;;;4.73;;
1204;SDS011;592;48.764;9.174;2023-03-30T12:51:19;11.93;;;4.90;;
1204;SDS011;592;48.764;9.174;2023-03-30T12:54:02;10.87;;;4.70;;
1204;SDS011;592;48.764;9.174;2023-03-30T12:56:42;9.97;;;5.17;;
1204;SDS011;592;48.764;9.174;2023-03-30T12:59:23;8.40;;;4.50;;
1204;SDS011;592;48.764;9.174;2023-03-30T13:02:29;9.87;;;4.80;;
1204;SDS011;592;48.764;9.174;2023-03-30T13:05:15;9.57;;;4.37;;
1204;SDS011;592;48.764;9.174;2023-03-30T13:07:45;7.77;;;4.20;;
1204;SDS011;592;48.764;9.174;2023-03-30T13:10:32;7.60;;;3.80;;
1204;SDS011;592;48.764;9.174;2023-03-30T13:13:15;12.03;;;4.50;;
1204;SDS011;592;48.764;9.174;2023-03-30T13:16:10;10.23;;;4.07;;
1204;SDS011;592;48.764;9.174;2023-03-30T13:18:50;5.97;;;3.67;;
1204;SDS011;592;48.764;9.174;2023-03-30T13:21:19;8.17;;;3.83;;
1204;SDS011;592;48.764;9.174;2023-03-30T13:24:00;7.23;;;3.90;;
1204;SDS011;592;48.764;9.174;2023-03-30T13:26:38;8.03;;;3.80;;
1204;SDS011;592;48.764;9.174;2023-03-30T13:29:07;5.97;;;3.60;;
1204;SDS011;592;48.764;9.174;2023-03-30T13:31:41;7.27;;;3.23;;
1204;SDS011;592;48.764;9.174;2023-03-30T13:34:28;12.87;;;4.00;;
1204;SDS011;592;48.764;9.174;2023-03-30T13:37:05;6.80;;;3.60;;
1204;SDS011;592;48.764;9.174;2023-03-30T13:39:43;6.90;;;3.97;;
1204;SDS011;592;48.764;9.174;2023-03-30T13:42:31;8.70;;;3.90;;
1204;SDS011;592;48.764;9.174;2023-03-30T13:45:11;7.70;;;4.20;;
1204;SDS011;592;48.764;9.174;2023-03-30T13:47:54;7.03;;;3.80;;
1204;SDS011;592;48.764;9.174;2023-03-30T13:50:28;9.10;;;3.20;;
1204;SDS011;592;48.764;9.174;2023-03-30T13:52:59;9.37;;;3.93;;
1204;SDS011;592;48.764;9.174;2023-03-30T13:55:32;9.10;;;4.30;;
1204;SDS011;592;48.764;9.174;2023-03-30T13:58:03;12.43;;;4.20;;
1204;SDS011;592;48.764;9.174;2023-03-30T14:00:36;9.50;;;4.30;;
1204;SDS011;592;48.764;9.174;2023-03-30T14:03:30;6.93;;;3.40;;
1204;SDS011;592;48.764;9.174;2023-03-30T14:06:01;6.93;;;3.00;;
1204;SDS011;592;48.764;9.174;2023-03-30T14:08:32;9.60;;;3.80;;
1204;SDS011;592;48.764;9.174;2023-03-30T14:11:03;8.37;;;3.50;;
1204;SDS011;592;48.764;9.174;2023-03-30T14:13:35;7.10;;;3.37;;
1204;SDS011;592;48.764;9.174;2023-03-30T14:16:02;6.70;;;3.10;;
1204;SDS011;592;48.764;9.174;2023-03-30T14:18:30;8.03;;;3.17;;
1204;SDS011;592;48.764;9.174;2023-03-30T14:20:58;22.77;;;3.80;;
1204;SDS011;592;48.764;9.174;2023-03-30T14:23:30;8.57;;;3.20;;
1204;SDS011;592;48.764;9.174;2023-03-30T14:26:00;7.33;;;2.90;;
1204;SDS011;592;48.764;9.174;2023-03-30T14:28:32;9.77;;;2.53;;
1204;SDS011;592;48.764;9.174;2023-03-30T14:31:03;7.37;;;2.80;;
1204;SDS011;592;48.764;9.174;2023-03-30T14:33:36;6.53;;;3.37;;
1204;SDS011;592;48.764;9.174;2023-03-30T14:36:05;7.20;;;2.50;;
1204;SDS011;592;48.764;9.174;2023-03-30T14:38:36;5.10;;;2.70;;
1204;SDS011;592;48.764;9.174;2023-03-30T14:41:06;5.73;;;3.27;;
1204;SDS011;592;48.764;9.174;2023-03-30T14:43:36;6.60;;;2.63;;
1204;SDS011;592;48.764;9.174;2023-03-30T14:46:06;8.80;;;2.37;;
1204;SDS011;592;48.764;9.174;2023-03-30T14:48:36;8.80;;;3.10;;
1204;SDS011;592;48.764;9.174;2023-03-30T14:51:06;9.63;;;2.60;;
1204;SDS011;592;48.764;9.174;2023-03-30T14:53:45;4.67;;;2.20;;
1204;SDS011;592;48.764;9.174;2023-03-30T14:56:14;6.97;;;2.70;;
1204;SDS011;592;48.764;9.174;2023-03-30T14:58:43;6.83;;;2.80;;
1204;SDS011;592;48.764;9.174;2023-03-30T15:01:12;8.20;;;2.50;;
1204;SDS011;592;48.764;9.174;2023-03-30T15:03:41;6.23;;;2.70;;
1204;SDS011;592;48.764;9.174;2023-03-30T15:06:10;6.43;;;2.70;;
1204;SDS011;592;48.764;9.174;2023-03-30T15:08:43;6.43;;;2.27;;
1204;SDS011;592;48.764;9.174;2023-03-30T15:11:12;6.63;;;2.63;;
1204;SDS011;592;48.764;9.174;2023-03-30T15:13:42;6.10;;;3.00;;
1204;SDS011;592;48.764;9.174;2023-03-30T15:16:11;9.33;;;3.07;;
1204;SDS011;592;48.764;9.174;2023-03-30T15:18:45;9.90;;;2.83;;
1204;SDS011;592;48.764;9.174;2023-03-30T15:21:13;9.00;;;3.00;;
1204;SDS011;592;48.764;9.174;2023-03-30T15:23:40;11.63;;;3.83;;
1204;SDS011;592;48.764;9.174;2023-03-30T15:26:10;6.20;;;2.57;;
1204;SDS011;592;48.764;9.174;2023-03-30T15:28:44;6.70;;;3.10;;
1204;SDS011;592;48.764;9.174;2023-03-30T15:31:13;6.17;;;2.60;;
1204;SDS011;592;48.764;9.174;2023-03-30T15:33:41;5.90;;;2.60;;
1204;SDS011;592;48.764;9.174;2023-03-30T15:36:11;5.43;;;3.23;;
1204;SDS011;592;48.764;9.174;2023-03-30T15:38:43;8.23;;;2.70;;
1204;SDS011;592;48.764;9.174;2023-03-30T15:41:13;4.10;;;1.90;;
1204;SDS011;592;48.764;9.174;2023-03-30T15:44:05;7.23;;;1.90;;
1204;SDS011;592;48.764;9.174;2023-03-30T15:46:35;6.60;;;1.87;;
1204;SDS011;592;48.764;9.174;2023-03-30T15:49:03;6.80;;;1.87;;
1204;SDS011;592;48.764;9.174;2023-03-30T15:51:34;5.33;;;1.80;;
1204;SDS011;592;48.764;9.174;2023-03-30T15:54:04;13.93;;;1.70;;
1204;SDS011;592;48.764;9.174;2023-03-30T15:56:37;5.27;;;1.90;;
1204;SDS011;592;48.764;9.174;2023-03-30T15:59:09;5.13;;;1.77;;